Time;durP1;ratioP1;P1;durP2;ratioP2;P2;SDS_P1;SDS_P2;PMS_P1;PMS_P2;Temp;Humidity;BMP_temperature;BMP_pressure;BME280_temperature;BME280_humidity;BME280_pressure;Samples;Min_cycle;Max_cycle;Signal;HPM_P1;HPM_P2
2024/01/19 00:02:15;;;;;;;0.00;0.00;;;0.30;79.70;;;;;;5108556;28;20051;-83
2024/01/19 00:04:41;;;;;;;0.00;0.00;;;0.10;99.90;;;;;;5104039;28;20094;-83
2024/01/19 00:07:07;;;;;;;0.00;0.00;;;0.00;99.90;;;;;;5071717;28;20059;-85
2024/01/19 00:09:32;;;;;;;0.00;0.00;;;-0.10;99.90;;;;;;5096239;28;20063;-84
2024/01/19 00:11:58;;;;;;;0.00;0.00;;;-0.20;99.90;;;;;;5064015;28;20060;-85
2024/01/19 00:14:24;;;;;;;18.80;1.27;;;-0.20;99.90;;;;;;5089013;28;20039;-85
2024/01/19 00:16:50;;;;;;;0.00;0.00;;;-0.10;99.90;;;;;;5097284;28;20035;-84
2024/01/19 00:19:16;;;;;;;0.00;0.00;;;-0.20;99.90;;;;;;5068232;28;20059;-85
2024/01/19 00:21:43;;;;;;;0.00;0.00;;;-0.40;99.90;;;;;;5068737;28;20047;-85
2024/01/19 00:24:09;;;;;;;2.13;1.27;;;-0.40;1.00;;;;;;5095388;28;20141;-84
2024/01/19 00:26:34;;;;;;;0.00;0.00;;;-0.60;99.90;;;;;;5086377;28;20060;-84
2024/01/19 00:29:00;;;;;;;0.00;0.00;;;-0.60;1.00;;;;;;5094893;28;20216;-85
2024/01/19 00:31:26;;;;;;;0.00;0.00;;;-0.60;1.00;;;;;;5097322;28;20046;-85
2024/01/19 00:33:52;;;;;;;0.00;0.00;;;-0.50;69.90;;;;;;5095598;28;20047;-84
2024/01/19 00:36:17;;;;;;;0.00;0.00;;;-0.40;75.50;;;;;;5083710;28;20528;-85
2024/01/19 00:38:43;;;;;;;0.00;0.00;;;-0.20;96.20;;;;;;5076842;28;20043;-84
2024/01/19 00:41:09;;;;;;;0.00;0.00;;;-0.10;34.70;;;;;;5091048;28;20590;-84
2024/01/19 00:43:34;;;;;;;0.00;0.00;;;0.20;1.00;;;;;;5072333;28;20048;-85
2024/01/19 00:46:02;;;;;;;0.00;0.00;;;0.30;99.90;;;;;;5098078;28;20032;-85
2024/01/19 00:48:27;;;;;;;0.00;0.00;;;0.40;99.90;;;;;;5085537;28;20106;-85
2024/01/19 00:50:53;;;;;;;0.00;0.00;;;0.40;99.90;;;;;;5069438;28;20472;-85
2024/01/19 00:53:18;;;;;;;0.10;0.10;;;0.40;1.00;;;;;;5093311;28;20051;-85
2024/01/19 00:55:44;;;;;;;0.00;0.00;;;0.60;1.00;;;;;;5094658;28;20044;-85
2024/01/19 00:58:10;;;;;;;0.00;0.00;;;0.50;1.00;;;;;;5095172;28;20048;-86
2024/01/19 01:00:36;;;;;;;1.08;0.65;;;0.60;99.90;;;;;;5087979;28;20064;-86
2024/01/19 01:03:02;;;;;;;0.00;0.00;;;0.60;99.90;;;;;;5075937;28;20047;-86
2024/01/19 01:05:27;;;;;;;0.00;0.00;;;0.60;99.90;;;;;;5064315;28;20098;-87
2024/01/19 01:07:53;;;;;;;0.20;0.20;;;0.60;1.00;;;;;;5047222;28;20528;-87
2024/01/19 01:10:19;;;;;;;0.00;0.00;;;0.50;99.90;;;;;;5087263;28;20054;-86
2024/01/19 01:12:44;;;;;;;1.25;0.80;;;0.50;99.90;;;;;;5093615;28;20072;-87
2024/01/19 01:15:10;;;;;;;0.00;0.00;;;0.50;99.90;;;;;;5061807;28;20036;-87
2024/01/19 01:17:36;;;;;;;0.00;0.00;;;0.40;99.90;;;;;;5093652;28;20055;-87
2024/01/19 01:20:02;;;;;;;0.00;0.00;;;0.50;1.00;;;;;;5095445;28;20048;-86
2024/01/19 01:22:28;;;;;;;0.00;0.00;;;0.40;1.00;;;;;;5084902;28;20520;-86
2024/01/19 01:24:54;;;;;;;0.00;0.00;;;0.40;1.00;;;;;;5086390;28;20036;-87
2024/01/19 01:27:19;;;;;;;0.00;0.00;;;0.30;99.90;;;;;;5095621;28;20447;-86
2024/01/19 01:29:45;;;;;;;0.10;0.10;;;0.30;99.90;;;;;;5093757;28;20040;-87
2024/01/19 01:32:11;;;;;;;0.00;0.00;;;0.20;99.90;;;;;;5094949;28;20508;-86
2024/01/19 01:34:36;;;;;;;0.00;0.00;;;0.10;99.90;;;;;;5092396;28;20412;-86
2024/01/19 01:37:02;;;;;;;0.00;0.00;;;0.00;99.90;;;;;;5083962;28;20044;-87
2024/01/19 01:39:28;;;;;;;0.00;0.00;;;-0.10;99.90;;;;;;5055749;28;20095;-87
2024/01/19 01:41:53;;;;;;;0.00;0.00;;;-0.20;99.90;;;;;;5096030;28;20082;-86
2024/01/19 01:44:19;;;;;;;0.07;0.07;;;-0.30;99.90;;;;;;5096623;28;20086;-86
2024/01/19 01:46:45;;;;;;;0.00;0.00;;;-0.40;99.90;;;;;;5090108;28;20056;-87
2024/01/19 01:49:10;;;;;;;0.00;0.00;;;-0.60;99.90;;;;;;5062703;28;20056;-87
2024/01/19 01:51:36;;;;;;;0.00;0.00;;;-0.60;99.90;;;;;;5093497;28;20047;-87
2024/01/19 01:54:05;;;;;;;0.00;0.00;;;-0.60;99.90;;;;;;5066229;28;20044;-87
2024/01/19 01:56:32;;;;;;;0.00;0.00;;;-0.70;99.90;;;;;;5094515;28;20047;-87
2024/01/19 01:58:58;;;;;;;0.00;0.00;;;-0.70;99.90;;;;;;5066738;28;20044;-86
2024/01/19 02:01:24;;;;;;;0.00;0.00;;;-0.70;99.90;;;;;;5092395;28;20051;-87
2024/01/19 02:03:51;;;;;;;0.00;0.00;;;-0.70;99.90;;;;;;5091943;28;20126;-87
2024/01/19 02:06:17;;;;;;;0.00;0.00;;;-0.80;99.90;;;;;;5058811;28;20485;-87
2024/01/19 02:08:42;;;;;;;0.00;0.00;;;-0.90;99.90;;;;;;5064877;28;20054;-87
2024/01/19 02:11:08;;;;;;;0.00;0.00;;;-1.00;99.90;;;;;;5092036;28;20059;-87
2024/01/19 02:13:34;;;;;;;0.00;0.00;;;-1.10;99.90;;;;;;5064665;28;20043;-87
2024/01/19 02:16:00;;;;;;;0.00;0.00;;;-1.10;99.90;;;;;;5074657;28;20059;-86
2024/01/19 02:18:29;;;;;;;0.00;0.00;;;-1.10;99.90;;;;;;5080136;28;20094;-87
2024/01/19 02:20:55;;;;;;;0.00;0.00;;;-1.10;99.90;;;;;;5101346;28;20093;-87
2024/01/19 02:23:25;;;;;;;0.00;0.00;;;-1.10;99.90;;;;;;5094845;28;20036;-87
2024/01/19 02:25:52;;;;;;;0.03;0.03;;;-1.00;99.90;;;;;;5067491;28;20497;-87
2024/01/19 02:28:18;;;;;;;0.20;0.20;;;-0.90;99.90;;;;;;5094737;28;20497;-87
2024/01/19 02:30:44;;;;;;;0.00;0.00;;;-0.90;99.90;;;;;;5094908;28;20046;-87
2024/01/19 02:33:10;;;;;;;0.00;0.00;;;-0.80;99.90;;;;;;5093301;28;20435;-87
2024/01/19 02:35:35;;;;;;;0.00;0.00;;;-0.70;99.90;;;;;;5095962;28;20867;-87
2024/01/19 02:38:01;;;;;;;0.00;0.00;;;-0.50;99.90;;;;;;5100528;28;20055;-87
2024/01/19 02:40:26;;;;;;;0.00;0.00;;;0.50;99.90;;;;;;5093072;28;20476;-88
2024/01/19 02:42:52;;;;;;;0.00;0.00;;;-0.20;99.90;;;;;;5083853;28;20401;-88
2024/01/19 02:45:18;;;;;;;0.00;0.00;;;-0.10;99.90;;;;;;5086585;28;20506;-88
2024/01/19 02:47:43;;;;;;;0.00;0.00;;;-0.10;99.90;;;;;;5085876;28;20383;-88
2024/01/19 02:50:09;;;;;;;0.00;0.00;;;-0.10;99.90;;;;;;5104537;28;20051;-88
2024/01/19 02:52:35;;;;;;;0.00;0.00;;;0.00;99.90;;;;;;5105322;28;20111;-88
2024/01/19 02:55:03;;;;;;;0.00;0.00;;;0.00;99.90;;;;;;5109561;28;20058;-88
2024/01/19 02:57:29;;;;;;;0.63;0.50;;;0.00;99.90;;;;;;5073713;28;20099;-88
2024/01/19 02:59:54;;;;;;;0.00;0.00;;;0.00;99.90;;;;;;5091443;28;20036;-88
2024/01/19 03:02:20;;;;;;;0.10;0.10;;;-0.10;1.00;;;;;;5096840;28;20044;-87
2024/01/19 03:04:46;;;;;;;0.00;0.00;;;-0.20;1.00;;;;;;5069911;28;20463;-89
2024/01/19 03:07:12;;;;;;;0.00;0.00;;;0.60;1.00;;;;;;5068901;28;20048;-88
2024/01/19 03:09:38;;;;;;;0.00;0.00;;;-0.50;99.90;;;;;;5082919;28;20063;-88
2024/01/19 03:12:04;;;;;;;0.00;0.00;;;-0.60;1.00;;;;;;5081403;28;20461;-87
2024/01/19 03:14:33;;;;;;;0.00;0.00;;;-0.70;1.00;;;;;;5049321;28;20127;-88
2024/01/19 03:16:58;;;;;;;0.00;0.00;;;-0.80;1.00;;;;;;5067182;28;20071;-87
2024/01/19 03:19:24;;;;;;;0.00;0.00;;;-0.90;1.00;;;;;;5068617;28;20450;-87
2024/01/19 03:21:50;;;;;;;0.00;0.00;;;-0.90;1.00;;;;;;5092273;28;20048;-87
2024/01/19 03:24:16;;;;;;;0.00;0.00;;;-0.90;1.00;;;;;;5032645;28;20052;-88
2024/01/19 03:26:42;;;;;;;5.40;0.83;;;-0.90;1.00;;;;;;5072694;28;20512;-87
2024/01/19 03:29:09;;;;;;;0.00;0.00;;;-0.90;1.00;;;;;;5068045;28;20107;-87
2024/01/19 03:31:35;;;;;;;0.00;0.00;;;-1.00;1.00;;;;;;5090168;28;20055;-87
2024/01/19 03:34:01;;;;;;;0.00;0.00;;;-1.00;1.00;;;;;;5091506;28;20048;-87
2024/01/19 03:36:26;;;;;;;0.00;0.00;;;-1.00;37.60;;;;;;5087369;28;20578;-87
2024/01/19 03:38:52;;;;;;;0.30;0.30;;;-0.90;62.50;;;;;;5068456;28;20047;-87
2024/01/19 03:41:18;;;;;;;0.10;0.10;;;-0.80;99.90;;;;;;5088030;28;20521;-87
2024/01/19 03:43:44;;;;;;;0.00;0.00;;;-0.70;99.90;;;;;;5090289;28;20051;-87
2024/01/19 03:46:10;;;;;;;0.00;0.00;;;-0.60;99.90;;;;;;5102099;28;20067;-87
2024/01/19 03:48:36;;;;;;;0.10;0.10;;;-0.40;99.90;;;;;;5095923;28;20058;-87
2024/01/19 03:51:01;;;;;;;0.00;0.00;;;-0.30;99.90;;;;;;5094209;28;20991;-88
2024/01/19 03:53:27;;;;;;;0.00;0.00;;;0.80;99.90;;;;;;5106424;28;20507;-87
2024/01/19 03:55:53;;;;;;;0.10;0.10;;;-0.10;99.90;;;;;;5100167;28;20157;-87
2024/01/19 03:58:19;;;;;;;0.00;0.00;;;0.00;99.90;;;;;;5071809;28;20052;-88
2024/01/19 04:00:44;;;;;;;0.00;0.00;;;0.10;99.90;;;;;;5096475;28;20046;-87
2024/01/19 04:03:10;;;;;;;0.00;0.00;;;1.20;99.90;;;;;;5109303;28;20048;-87
2024/01/19 04:05:36;;;;;;;0.30;0.30;;;0.20;99.90;;;;;;5075653;28;20404;-87
2024/01/19 04:08:02;;;;;;;0.00;0.00;;;0.30;99.90;;;;;;5083344;28;20055;-88
2024/01/19 04:10:28;;;;;;;0.00;0.00;;;0.20;99.90;;;;;;5069288;28;20486;-87
2024/01/19 04:12:54;;;;;;;0.00;0.00;;;0.60;99.90;;;;;;5070997;28;20098;-87
2024/01/19 04:15:19;;;;;;;0.00;0.00;;;0.20;99.90;;;;;;5031545;28;20132;-87
2024/01/19 04:17:45;;;;;;;0.00;0.00;;;0.00;99.90;;;;;;5048162;28;20048;-87
2024/01/19 04:20:11;;;;;;;0.00;0.00;;;0.00;99.90;;;;;;5067491;28;20363;-87
2024/01/19 04:22:36;;;;;;;0.00;0.00;;;-0.20;99.90;;;;;;5067766;28;20048;-87
2024/01/19 04:25:02;;;;;;;0.00;0.00;;;-0.40;99.90;;;;;;5098145;28;20489;-87
2024/01/19 04:27:28;;;;;;;0.00;0.00;;;-0.50;99.90;;;;;;5067452;28;20189;-87
2024/01/19 04:29:53;;;;;;;0.00;0.00;;;0.20;99.90;;;;;;5048529;28;20049;-87
2024/01/19 04:32:20;;;;;;;0.00;0.00;;;-0.70;99.90;;;;;;5045018;28;20048;-87
2024/01/19 04:34:46;;;;;;;0.00;0.00;;;0.50;99.90;;;;;;5069052;28;20509;-87
2024/01/19 04:37:11;;;;;;;0.50;0.50;;;-0.90;99.90;;;;;;5068815;28;20052;-87
2024/01/19 04:39:37;;;;;;;0.00;0.00;;;-1.00;99.90;;;;;;5087588;28;20074;-87
2024/01/19 04:42:03;;;;;;;0.00;0.00;;;-1.10;99.90;;;;;;5088284;28;20051;-87
2024/01/19 04:44:28;;;;;;;0.00;0.00;;;-1.20;99.90;;;;;;5071465;28;20534;-87
2024/01/19 04:46:54;;;;;;;0.00;0.00;;;-1.20;99.90;;;;;;5088969;28;20070;-87
2024/01/19 04:49:19;;;;;;;0.00;0.00;;;-1.30;99.90;;;;;;5107107;28;20044;-87
2024/01/19 04:51:45;;;;;;;0.00;0.00;;;-1.40;99.90;;;;;;5106895;28;20059;-88
2024/01/19 04:54:11;;;;;;;0.80;0.67;;;-1.40;99.90;;;;;;5078721;28;20040;-87
2024/01/19 04:56:36;;;;;;;0.00;0.00;;;-1.50;99.90;;;;;;5090568;28;20497;-88
2024/01/19 04:59:02;;;;;;;0.00;0.00;;;-1.50;99.90;;;;;;5087865;28;20051;-88
2024/01/19 05:01:28;;;;;;;0.00;0.00;;;-1.60;99.90;;;;;;5089211;28;20048;-88
2024/01/19 05:03:53;;;;;;;0.00;0.00;;;-1.80;99.90;;;;;;5088721;28;20082;-88
2024/01/19 05:06:22;;;;;;;0.00;0.00;;;-1.50;99.90;;;;;;5106587;28;20047;-88
2024/01/19 05:08:48;;;;;;;0.50;0.50;;;-2.00;99.90;;;;;;5083704;28;20492;-88
2024/01/19 05:11:13;;;;;;;0.00;0.00;;;-2.00;99.90;;;;;;5067829;28;20052;-88
2024/01/19 05:13:41;;;;;;;0.00;0.00;;;-1.30;99.90;;;;;;5086002;28;20060;-88
2024/01/19 05:16:08;;;;;;;0.00;0.00;;;-2.10;99.90;;;;;;5084871;28;20230;-88
2024/01/19 05:18:34;;;;;;;0.00;0.00;;;-2.30;99.90;;;;;;5086203;28;20036;-88
2024/01/19 05:21:00;;;;;;;0.43;0.43;;;-2.30;99.90;;;;;;5067235;28;20055;-88
2024/01/19 05:23:25;;;;;;;0.00;0.00;;;-2.50;99.90;;;;;;5085564;28;20127;-88
2024/01/19 05:25:51;;;;;;;0.00;0.00;;;-2.50;99.90;;;;;;5085510;28;20177;-88
2024/01/19 05:28:17;;;;;;;0.10;0.10;;;-2.50;99.90;;;;;;5085313;28;20417;-88
2024/01/19 05:30:42;;;;;;;0.00;0.00;;;-2.40;99.90;;;;;;5067596;28;20048;-88
2024/01/19 05:33:08;;;;;;;0.00;0.00;;;-2.50;99.90;;;;;;5085972;28;20050;-88
2024/01/19 05:35:34;;;;;;;0.00;0.00;;;-2.50;99.90;;;;;;5068235;28;20052;-88
2024/01/19 05:38:00;;;;;;;0.10;0.10;;;-2.60;99.90;;;;;;5060441;28;20126;-88
2024/01/19 05:40:25;;;;;;;0.00;0.00;;;-2.50;99.90;;;;;;5086800;28;20048;-88
2024/01/19 05:42:51;;;;;;;0.00;0.00;;;-2.10;99.90;;;;;;5087042;28;20051;-88
2024/01/19 05:45:16;;;;;;;0.00;0.00;;;-2.20;99.90;;;;;;5105613;28;20054;-88
2024/01/19 05:47:42;;;;;;;0.00;0.00;;;-1.20;99.90;;;;;;5105315;28;20043;-88
2024/01/19 05:50:08;;;;;;;0.00;0.00;;;-1.10;99.90;;;;;;5106028;28;20281;-88
2024/01/19 05:52:34;;;;;;;0.00;0.00;;;-1.60;99.90;;;;;;5105448;28;20051;-88
2024/01/19 05:55:00;;;;;;;0.00;0.00;;;-1.00;99.90;;;;;;5087547;28;20253;-87
2024/01/19 05:57:25;;;;;;;0.00;0.00;;;-1.50;99.90;;;;;;5084661;28;20044;-88
2024/01/19 05:59:51;;;;;;;0.00;0.00;;;-1.50;99.90;;;;;;5049279;28;20417;-88
2024/01/19 06:02:17;;;;;;;0.00;0.00;;;-1.50;99.90;;;;;;5066774;28;20102;-88
2024/01/19 06:04:42;;;;;;;0.00;0.00;;;-1.50;99.90;;;;;;5060349;28;20036;-88
2024/01/19 06:07:08;;;;;;;0.00;0.00;;;-1.60;99.90;;;;;;5046493;28;20106;-88
2024/01/19 06:09:33;;;;;;;0.00;0.00;;;-1.70;99.90;;;;;;5047723;28;20079;-88
2024/01/19 06:12:00;;;;;;;0.00;0.00;;;-1.90;99.90;;;;;;5065749;28;20131;-88
2024/01/19 06:14:25;;;;;;;0.00;0.00;;;-2.00;99.90;;;;;;5048800;28;20044;-88
2024/01/19 06:16:52;;;;;;;0.00;0.00;;;-2.00;99.90;;;;;;5054955;28;20055;-88
2024/01/19 06:19:18;;;;;;;0.00;0.00;;;-2.10;99.90;;;;;;5056406;28;20087;-88
2024/01/19 06:21:47;;;;;;;0.00;0.00;;;-2.00;99.90;;;;;;5067642;28;20090;-88
2024/01/19 06:24:16;;;;;;;0.00;0.00;;;-2.00;99.90;;;;;;5064743;28;20044;-88
2024/01/19 06:26:47;;;;;;;0.00;0.00;;;-1.80;99.90;;;;;;5047639;28;20079;-88
2024/01/19 06:29:13;;;;;;;0.00;0.00;;;-1.70;99.90;;;;;;5048179;28;20491;-87
2024/01/19 06:31:46;;;;;;;1.50;1.13;;;-1.60;99.90;;;;;;5047851;28;20156;-88
2024/01/19 06:34:12;;;;;;;0.00;0.00;;;-1.40;99.90;;;;;;5047183;28;20040;-88
2024/01/19 06:36:38;;;;;;;0.00;0.00;;;-1.20;99.90;;;;;;5066163;28;20130;-87
2024/01/19 06:39:04;;;;;;;0.00;0.00;;;-1.10;99.90;;;;;;5047763;28;20044;-88
2024/01/19 06:41:30;;;;;;;0.00;0.00;;;-1.00;99.90;;;;;;5066360;28;20052;-87
2024/01/19 06:43:56;;;;;;;0.00;0.00;;;-0.90;99.90;;;;;;5065829;28;20047;-88
2024/01/19 06:46:22;;;;;;;0.00;0.00;;;-0.90;99.90;;;;;;5065608;28;20151;-88
2024/01/19 06:48:48;;;;;;;0.00;0.00;;;-0.90;99.90;;;;;;5053361;28;20468;-88
2024/01/19 06:51:17;;;;;;;0.87;0.70;;;-1.10;99.90;;;;;;5085162;28;20047;-88
2024/01/19 06:53:43;;;;;;;0.00;0.00;;;-1.30;99.90;;;;;;5085268;28;20725;-88
2024/01/19 06:56:08;;;;;;;0.00;0.00;;;-1.50;99.90;;;;;;5085436;28;20086;-88
2024/01/19 06:58:34;;;;;;;0.00;0.00;;;-1.70;99.90;;;;;;5067961;28;20055;-88
2024/01/19 07:00:59;;;;;;;0.00;0.00;;;-2.00;99.90;;;;;;5085462;28;20055;-88
2024/01/19 07:03:25;;;;;;;0.00;0.00;;;-2.10;99.90;;;;;;5067437;28;20044;-88
2024/01/19 07:05:50;;;;;;;0.00;0.00;;;-2.30;99.90;;;;;;5090027;28;20096;-88
2024/01/19 07:08:16;;;;;;;0.00;0.00;;;-2.40;99.90;;;;;;5105120;28;20528;-88
2024/01/19 07:10:42;;;;;;;0.00;0.00;;;-2.50;99.90;;;;;;5107038;28;20054;-88
2024/01/19 07:13:07;;;;;;;0.00;0.00;;;-2.50;99.90;;;;;;5117299;28;20048;-88
2024/01/19 07:15:33;;;;;;;0.00;0.00;;;-2.60;99.90;;;;;;5107303;28;20742;-88
2024/01/19 07:17:58;;;;;;;0.00;0.00;;;-2.50;99.90;;;;;;5105023;28;20047;-88
2024/01/19 07:20:24;;;;;;;0.00;0.00;;;-2.50;99.90;;;;;;5105568;28;20503;-88
2024/01/19 07:22:53;;;;;;;0.10;0.10;;;-2.50;99.90;;;;;;5105567;28;20095;-88
2024/01/19 07:25:19;;;;;;;0.00;0.00;;;-2.50;99.90;;;;;;5086551;28;20927;-88
2024/01/19 07:27:45;;;;;;;0.00;0.00;;;-2.40;99.90;;;;;;5105379;28;20051;-88
2024/01/19 07:30:10;;;;;;;0.10;0.10;;;-2.40;99.90;;;;;;5105564;28;20044;-88
2024/01/19 07:32:36;;;;;;;0.00;0.00;;;-2.30;99.90;;;;;;5105025;28;20046;-88
2024/01/19 07:35:02;;;;;;;0.00;0.00;;;-2.30;99.90;;;;;;5086493;28;20052;-88
2024/01/19 07:37:27;;;;;;;0.00;0.00;;;-2.20;99.90;;;;;;5106278;28;20050;-88
2024/01/19 07:39:53;;;;;;;0.00;0.00;;;-2.00;99.90;;;;;;5109035;28;20519;-88
2024/01/19 07:42:18;;;;;;;0.87;0.63;;;-1.90;99.90;;;;;;5114547;28;20047;-89
2024/01/19 07:44:44;;;;;;;0.10;0.10;;;-1.70;99.90;;;;;;5109314;28;20035;-89
2024/01/19 07:47:10;;;;;;;0.00;0.00;;;-1.60;99.90;;;;;;5109930;28;20044;-89
2024/01/19 07:49:35;;;;;;;0.00;0.00;;;-1.50;99.90;;;;;;5108816;28;20079;-89
2024/01/19 07:52:01;;;;;;;0.00;0.00;;;-1.40;99.90;;;;;;5099581;28;20051;-89
2024/01/19 07:54:27;;;;;;;0.00;0.00;;;-1.20;99.90;;;;;;5088620;28;20408;-89
2024/01/19 07:56:52;;;;;;;0.00;0.00;;;-1.10;99.90;;;;;;5088489;28;20063;-89
2024/01/19 07:59:18;;;;;;;0.90;0.83;;;-1.00;99.90;;;;;;5069384;28;20083;-89
2024/01/19 08:01:43;;;;;;;0.00;0.00;;;-0.90;99.90;;;;;;5087565;28;20494;-89
2024/01/19 08:04:11;;;;;;;0.10;0.10;;;-0.80;99.90;;;;;;5070548;28;20043;-89
2024/01/19 08:06:38;;;;;;;0.10;0.10;;;-0.80;99.90;;;;;;5088718;28;20051;-89
2024/01/19 08:09:03;;;;;;;0.10;0.10;;;-0.80;99.90;;;;;;5089332;28;20498;-89
2024/01/19 08:11:29;;;;;;;0.40;0.40;;;-0.70;99.90;;;;;;5090134;28;20086;-89
2024/01/19 08:13:55;;;;;;;0.00;0.00;;;-0.70;99.90;;;;;;5071463;28;20482;-89
2024/01/19 08:16:20;;;;;;;0.00;0.00;;;-0.60;99.90;;;;;;5089620;28;20257;-89
2024/01/19 08:18:46;;;;;;;0.17;0.17;;;-0.50;99.90;;;;;;5076906;28;20048;-88
2024/01/19 08:21:12;;;;;;;0.00;0.00;;;-0.40;99.90;;;;;;5051631;28;20057;-88
2024/01/19 08:23:37;;;;;;;0.00;0.00;;;-0.50;99.90;;;;;;5068739;28;20067;-88
2024/01/19 08:26:06;;;;;;;2.70;2.45;;;-0.50;99.90;;;;;;5051069;28;20138;-88
2024/01/19 08:28:32;;;;;;;0.10;0.10;;;-0.50;99.90;;;;;;5049729;28;20048;-88
2024/01/19 08:30:57;;;;;;;0.00;0.00;;;-0.50;99.90;;;;;;5050575;28;20134;-88
2024/01/19 08:33:23;;;;;;;0.00;0.00;;;-0.60;99.90;;;;;;5080663;28;20047;-88
2024/01/19 08:35:49;;;;;;;0.00;0.00;;;-0.60;99.90;;;;;;5090185;28;20051;-87
2024/01/19 08:38:15;;;;;;;0.00;0.00;;;-0.70;99.90;;;;;;5089461;28;20158;-87
2024/01/19 08:40:41;;;;;;;0.00;0.00;;;-0.70;99.90;;;;;;5108271;28;20123;-88
2024/01/19 08:43:06;;;;;;;0.00;0.00;;;-0.70;99.90;;;;;;5089138;28;20043;-88
2024/01/19 08:45:32;;;;;;;0.00;0.00;;;-0.70;99.90;;;;;;5107356;28;20047;-88
2024/01/19 08:47:58;;;;;;;0.00;0.00;;;-0.70;99.90;;;;;;5107818;28;20138;-88
2024/01/19 08:50:24;;;;;;;0.00;0.00;;;-0.70;99.90;;;;;;5071605;28;20063;-88
2024/01/19 08:52:50;;;;;;;0.10;0.10;;;-0.70;99.90;;;;;;5107789;28;20277;-88
2024/01/19 08:55:17;;;;;;;0.20;0.20;;;-0.70;99.90;;;;;;5087818;28;20055;-88
2024/01/19 08:57:42;;;;;;;0.30;0.22;;;-0.70;99.90;;;;;;5086761;28;20143;-89
2024/01/19 09:00:09;;;;;;;0.00;0.00;;;-0.70;99.90;;;;;;5086500;28;20506;-87
2024/01/19 09:02:37;;;;;;;1.65;0.38;;;-0.70;99.90;;;;;;5048899;28;20049;-88
2024/01/19 09:05:09;;;;;;;0.00;0.00;;;-0.70;99.90;;;;;;5065269;28;20457;-88
2024/01/19 09:07:35;;;;;;;0.00;0.00;;;-0.60;99.90;;;;;;5046961;28;20084;-88
2024/01/19 09:10:00;;;;;;;0.00;0.00;;;-0.70;99.90;;;;;;5047001;28;20475;-88
2024/01/19 09:12:27;;;;;;;0.10;0.10;;;-0.60;99.90;;;;;;5083796;28;20057;-88
2024/01/19 09:14:54;;;;;;;0.08;0.08;;;-0.70;99.90;;;;;;5105408;28;20123;-88
2024/01/19 09:17:19;;;;;;;0.00;0.00;;;-0.60;99.90;;;;;;5104023;28;20058;-88
2024/01/19 09:19:45;;;;;;;0.00;0.00;;;-0.60;99.90;;;;;;5104421;28;20495;-88
2024/01/19 09:22:10;;;;;;;0.00;0.00;;;-0.50;99.90;;;;;;5104766;28;20134;-88
2024/01/19 09:24:36;;;;;;;0.00;0.00;;;-0.50;99.90;;;;;;5106589;28;20054;-88
2024/01/19 09:27:02;;;;;;;0.00;0.00;;;-0.40;99.90;;;;;;5088477;28;20070;-88
2024/01/19 09:29:27;;;;;;;0.73;0.47;;;-0.40;99.90;;;;;;5106427;28;20477;-88
2024/01/19 09:31:53;;;;;;;0.00;0.00;;;-0.30;99.90;;;;;;5106013;28;20044;-88
2024/01/19 09:34:18;;;;;;;0.00;0.00;;;-0.20;99.90;;;;;;5105741;28;20046;-88
2024/01/19 09:36:44;;;;;;;0.00;0.00;;;-0.20;99.90;;;;;;5105779;28;20047;-88
2024/01/19 09:39:10;;;;;;;0.00;0.00;;;-0.20;99.90;;;;;;5088934;28;20051;-89
2024/01/19 09:41:46;;;;;;;0.00;0.00;;;1.00;99.90;;;;;;5086677;28;20043;-89
2024/01/19 09:44:12;;;;;;;0.20;0.20;;;-0.10;99.90;;;;;;5104896;28;20043;-88
2024/01/19 09:46:50;;;;;;;0.00;0.00;;;0.00;99.90;;;;;;5105336;28;20556;-88
2024/01/19 09:49:44;;;;;;;1.13;0.77;;;0.00;99.90;;;;;;5106189;28;20056;-88
2024/01/19 09:52:26;;;;;;;0.00;0.00;;;0.10;99.90;;;;;;5105289;28;20079;-88
2024/01/19 09:54:54;;;;;;;0.00;0.00;;;0.20;99.90;;;;;;5086917;28;20055;-88
2024/01/19 09:57:19;;;;;;;0.00;0.00;;;0.20;99.90;;;;;;5071039;28;20048;-87
2024/01/19 09:59:45;;;;;;;0.00;0.00;;;0.20;99.90;;;;;;5065029;28;20059;-88
2024/01/19 10:02:12;;;;;;;0.30;0.30;;;0.30;99.90;;;;;;5066023;28;20046;-88
2024/01/19 10:04:38;;;;;;;0.00;0.00;;;0.30;99.90;;;;;;5066477;28;20052;-88
2024/01/19 10:07:04;;;;;;;0.00;0.00;;;0.30;99.90;;;;;;5084897;28;20051;-88
2024/01/19 10:09:32;;;;;;;0.00;0.00;;;0.30;99.90;;;;;;5084615;28;20121;-87
2024/01/19 10:11:58;;;;;;;8.10;1.30;;;0.40;99.90;;;;;;5084699;28;20051;-87
2024/01/19 10:14:25;;;;;;;0.03;0.03;;;0.40;99.90;;;;;;5103042;28;20054;-88
2024/01/19 10:16:51;;;;;;;0.00;0.00;;;0.40;99.90;;;;;;5087879;28;20044;-88
2024/01/19 10:19:20;;;;;;;0.00;0.00;;;0.40;99.90;;;;;;5107003;28;20443;-87
2024/01/19 10:21:46;;;;;;;0.00;0.00;;;0.40;99.90;;;;;;5107695;28;20058;-88
2024/01/19 10:24:19;;;;;;;0.00;0.00;;;0.50;99.90;;;;;;5107101;28;20126;-88
2024/01/19 10:26:58;;;;;;;0.00;0.00;;;0.50;99.90;;;;;;5105746;28;20047;-86
2024/01/19 10:29:23;;;;;;;1.58;1.48;;;0.60;99.90;;;;;;5104121;28;20505;-88
2024/01/19 10:31:51;;;;;;;0.00;0.00;;;0.60;99.90;;;;;;5104792;28;20047;-88
2024/01/19 10:34:18;;;;;;;0.00;0.00;;;0.60;99.90;;;;;;5105226;28;20047;-88
2024/01/19 10:36:45;;;;;;;0.00;0.00;;;0.60;99.90;;;;;;5104971;28;20043;-88
2024/01/19 10:39:22;;;;;;;0.00;0.00;;;0.60;99.90;;;;;;5094905;28;20046;-87
2024/01/19 10:41:49;;;;;;;0.63;0.40;;;0.60;99.90;;;;;;5084420;28;20104;-88
2024/01/19 10:44:21;;;;;;;2.83;0.87;;;0.60;99.90;;;;;;5090869;28;20075;-88
2024/01/19 10:46:49;;;;;;;0.00;0.00;;;0.60;99.90;;;;;;5090934;28;20044;-88
2024/01/19 10:49:19;;;;;;;0.00;0.00;;;0.70;99.90;;;;;;5103567;28;20152;-88
2024/01/19 10:51:45;;;;;;;0.00;0.00;;;0.60;99.90;;;;;;5078832;28;20047;-88
2024/01/19 10:54:23;;;;;;;0.10;0.10;;;0.70;99.90;;;;;;5065315;28;20386;-87
2024/01/19 10:57:05;;;;;;;0.00;0.00;;;0.70;99.90;;;;;;5083216;28;20387;-88
2024/01/19 10:59:31;;;;;;;2.20;2.00;;;0.80;99.90;;;;;;5065366;28;20071;-88
2024/01/19 11:02:01;;;;;;;0.33;0.33;;;0.80;28.20;;;;;;5097783;28;20047;-88
2024/01/19 11:04:27;;;;;;;0.03;0.03;;;0.80;1.00;;;;;;5086099;28;20098;-87
2024/01/19 11:06:53;;;;;;;0.47;0.30;;;0.90;1.00;;;;;;5103276;28;20513;-87
2024/01/19 11:09:19;;;;;;;0.00;0.00;;;0.90;1.00;;;;;;5094520;28;20530;-88
2024/01/19 11:11:53;;;;;;;0.07;0.07;;;0.90;99.90;;;;;;5094540;28;20043;-87
2024/01/19 11:14:22;;;;;;;0.00;0.00;;;0.80;99.90;;;;;;5104551;28;20388;-87
2024/01/19 11:16:48;;;;;;;0.00;0.00;;;0.90;99.90;;;;;;5089092;28;20501;-87
2024/01/19 11:19:18;;;;;;;0.00;0.00;;;0.90;99.90;;;;;;5107907;28;20048;-87
2024/01/19 11:21:44;;;;;;;0.00;0.00;;;1.00;99.90;;;;;;5097153;28;20406;-87
2024/01/19 11:24:12;;;;;;;0.97;0.97;;;1.00;55.10;;;;;;5095520;28;20048;-87
2024/01/19 11:26:49;;;;;;;0.00;0.00;;;1.00;1.00;;;;;;5096065;28;20051;-87
2024/01/19 11:29:21;;;;;;;0.00;0.00;;;1.10;1.00;;;;;;5083660;28;20051;-86
2024/01/19 11:31:48;;;;;;;0.57;0.57;;;1.20;1.00;;;;;;5070035;28;20056;-86
2024/01/19 11:34:41;;;;;;;0.20;0.20;;;1.20;99.90;;;;;;5102678;28;21238;-86
2024/01/19 11:37:08;;;;;;;0.00;0.00;;;1.30;1.00;;;;;;5071127;28;20408;-86
2024/01/19 11:39:39;;;;;;;0.10;0.10;;;1.40;1.00;;;;;;5098240;28;20418;-85
2024/01/19 11:42:05;;;;;;;0.77;0.77;;;1.40;99.90;;;;;;5087741;28;20399;-85
2024/01/19 11:44:43;;;;;;;0.00;0.00;;;1.50;99.90;;;;;;5087452;28;20123;-84
2024/01/19 11:47:09;;;;;;;0.37;0.37;;;1.60;1.00;;;;;;5098108;28;20076;-85
2024/01/19 11:49:45;;;;;;;0.00;0.00;;;2.10;1.00;;;;;;5094634;28;20338;-85
2024/01/19 11:52:19;;;;;;;0.10;0.10;;;1.80;99.90;;;;;;5096512;28;20125;-86
2024/01/19 11:54:45;;;;;;;0.00;0.00;;;1.80;87.80;;;;;;5106995;28;20055;-86
2024/01/19 11:57:26;;;;;;;0.10;0.10;;;1.90;1.00;;;;;;5106504;28;20039;-86
2024/01/19 11:59:53;;;;;;;0.00;0.00;;;1.90;1.00;;;;;;5095273;28;20048;-86
2024/01/19 12:02:33;;;;;;;0.57;0.40;;;1.90;99.90;;;;;;5087866;28;20097;-86
2024/01/19 12:05:03;;;;;;;0.30;0.30;;;2.00;99.90;;;;;;5098922;28;20051;-86
2024/01/19 12:07:29;;;;;;;0.00;0.00;;;2.00;99.90;;;;;;5071511;28;20048;-87
2024/01/19 12:10:16;;;;;;;0.00;0.00;;;2.10;99.90;;;;;;5097404;28;20618;-86
2024/01/19 12:12:42;;;;;;;0.00;0.00;;;2.20;47.90;;;;;;5088857;28;20046;-87
2024/01/19 12:15:09;;;;;;;0.50;0.50;;;2.40;1.00;;;;;;5100146;28;20052;-88
2024/01/19 12:17:43;;;;;;;0.00;0.00;;;2.50;99.90;;;;;;5087599;28;20040;-87
2024/01/19 12:20:18;;;;;;;0.00;0.00;;;2.80;99.90;;;;;;5075873;28;20079;-85
2024/01/19 12:22:45;;;;;;;0.00;0.00;;;3.10;1.00;;;;;;5091912;28;20055;-84
2024/01/19 12:25:14;;;;;;;8.02;2.90;;;3.30;99.90;;;;;;5103229;28;20047;-84
2024/01/19 12:27:40;;;;;;;0.00;0.00;;;3.60;99.90;;;;;;5104428;28;20075;-84
2024/01/19 12:30:16;;;;;;;0.00;0.00;;;3.70;99.90;;;;;;5098417;28;20581;-84
2024/01/19 12:32:42;;;;;;;0.00;0.00;;;3.80;99.90;;;;;;5101166;28;20032;-84
2024/01/19 12:35:09;;;;;;;11.20;0.93;;;3.80;99.90;;;;;;5086105;28;20121;-85
2024/01/19 12:37:34;;;;;;;0.15;0.15;;;4.00;74.80;;;;;;5067466;28;20090;-86
2024/01/19 12:40:21;;;;;;;0.10;0.10;;;4.10;1.00;;;;;;5068932;28;20067;-86
2024/01/19 12:42:47;;;;;;;1.67;0.75;;;4.00;99.90;;;;;;5087929;28;20063;-87
2024/01/19 12:45:15;;;;;;;0.20;0.20;;;4.20;99.90;;;;;;5065377;28;20140;-88
2024/01/19 12:47:42;;;;;;;0.28;0.15;;;4.20;1.00;;;;;;5066342;28;20076;-88
2024/01/19 12:50:08;;;;;;;0.00;0.00;;;4.40;1.00;;;;;;5093885;28;20059;-88
2024/01/19 12:52:34;;;;;;;0.00;0.00;;;4.40;99.90;;;;;;5097112;28;20074;-85